Terminal Aerodrome Forecast
Issued by NWS

Home | Current Version | Previous Version | Text Only | Print | Product List | Glossary On
Versions: 1 2 3 4 5 6 7 8 9 10 11 12 13 14 15 16 17 18 19 20 21 22 23 24 25 26 27 28 29 30 31
000
FTUS43 KMKX 260520
TAFENW
TAF
KENW 260520Z 2606/2706 15008KT P6SM BKN150
     FM261100 16009KT P6SM VCSH BKN070
     FM261500 18012G20KT P6SM SHRA VCTS OVC050CB
     FM261800 19014KT 6SM -SHRA VCTS SCT025 BKN030CB
     FM270000 20008KT 3SM SHRA BR OVC010
     FM270100 20007KT 4SM SHRA BR OVC008
     FM270300 21006KT 3SM SHRA BR OVC008=

USA.gov is the U.S. government's official web portal to all federal, state and local government web resources and services.